Time;durP1;ratioP1;P1;durP2;ratioP2;P2;SDS_P1;SDS_P2;PMS_P1;PMS_P2;Temp;Humidity;BMP_temperature;BMP_pressure;BME280_temperature;BME280_humidity;BME280_pressure;Samples;Min_cycle;Max_cycle;Signal;HPM_P1;HPM_P2
2022/03/08 00:01:56;;;;;;;12.50;6.23;;;-4.60;99.90;;;;;;8346711;28;20222;-63
2022/03/08 00:05:57;;;;;;;17.27;6.13;;;-4.70;99.90;;;;;;8328356;28;20215;-63
2022/03/08 00:09:58;;;;;;;14.03;6.37;;;-4.70;99.90;;;;;;8331745;28;20210;-64
2022/03/08 00:13:59;;;;;;;18.63;7.90;;;-4.70;99.90;;;;;;8344449;28;20206;-65
2022/03/08 00:18:00;;;;;;;16.97;7.63;;;-4.70;99.90;;;;;;8348293;28;20664;-63
2022/03/08 00:22:01;;;;;;;14.73;6.90;;;-4.70;99.90;;;;;;8318675;28;20221;-63
2022/03/08 00:26:02;;;;;;;15.97;6.67;;;-4.80;99.90;;;;;;8325344;28;20277;-63
2022/03/08 00:30:07;;;;;;;14.40;6.07;;;-4.80;99.90;;;;;;8335332;28;20298;-65
2022/03/08 00:34:08;;;;;;;12.40;7.03;;;-4.80;99.90;;;;;;8344300;28;20210;-63
2022/03/08 00:38:09;;;;;;;33.13;11.37;;;-4.80;99.90;;;;;;8332323;28;20211;-64
2022/03/08 00:42:12;;;;;;;26.73;9.80;;;-4.80;99.90;;;;;;8343752;28;20220;-64
2022/03/08 00:46:13;;;;;;;32.17;11.03;;;-4.80;99.90;;;;;;8350630;28;20234;-63
2022/03/08 00:50:17;;;;;;;18.60;8.80;;;-4.80;99.90;;;;;;8332818;28;20205;-63
2022/03/08 00:54:18;;;;;;;15.70;6.63;;;-4.80;99.90;;;;;;8351022;28;20288;-64
2022/03/08 00:58:20;;;;;;;17.23;7.50;;;-4.80;99.90;;;;;;8350167;28;20220;-64
2022/03/08 01:02:21;;;;;;;12.63;6.50;;;-4.70;99.90;;;;;;8330688;28;20225;-64
2022/03/08 01:06:21;;;;;;;15.17;6.40;;;-4.70;99.90;;;;;;8323694;28;20227;-63
2022/03/08 01:10:24;;;;;;;12.70;6.47;;;-4.70;99.90;;;;;;8343345;28;20211;-64
2022/03/08 01:14:25;;;;;;;12.30;6.27;;;-4.70;99.90;;;;;;8328204;28;20219;-65
2022/03/08 01:18:26;;;;;;;19.70;6.50;;;-4.70;99.90;;;;;;8328703;28;20230;-64
2022/03/08 01:22:29;;;;;;;14.30;7.10;;;-4.60;99.90;;;;;;8324878;28;20232;-63
2022/03/08 01:26:31;;;;;;;12.23;6.80;;;-4.60;99.90;;;;;;8346862;28;20234;-63
2022/03/08 01:30:32;;;;;;;16.07;6.30;;;-4.60;99.90;;;;;;8326186;28;20228;-63
2022/03/08 01:34:34;;;;;;;15.87;6.70;;;-4.60;99.90;;;;;;8343622;28;20217;-63
2022/03/08 01:38:35;;;;;;;15.50;6.63;;;-4.60;99.90;;;;;;8346909;28;20292;-64
2022/03/08 01:42:35;;;;;;;15.03;6.20;;;-4.60;99.90;;;;;;8345420;28;20227;-63
2022/03/08 01:46:36;;;;;;;13.87;6.10;;;-4.50;99.90;;;;;;8319860;28;20257;-64
2022/03/08 01:50:37;;;;;;;13.57;6.33;;;-4.50;99.90;;;;;;8347367;28;20207;-63
2022/03/08 01:54:38;;;;;;;14.40;6.13;;;-4.50;99.90;;;;;;8340836;28;20242;-63
2022/03/08 01:58:39;;;;;;;13.70;5.60;;;-4.50;99.90;;;;;;8331884;28;20204;-64
2022/03/08 02:02:42;;;;;;;17.20;6.43;;;-4.50;99.90;;;;;;8329818;28;21106;-63
2022/03/08 02:06:44;;;;;;;10.23;5.77;;;-4.50;99.90;;;;;;8347223;28;20199;-63
2022/03/08 02:10:45;;;;;;;12.63;6.17;;;-4.60;99.90;;;;;;8343795;28;20306;-64
2022/03/08 02:14:46;;;;;;;11.80;6.20;;;-4.60;99.90;;;;;;8323953;28;20272;-63
2022/03/08 02:18:47;;;;;;;12.73;5.90;;;-4.60;99.90;;;;;;8329813;28;20207;-63
2022/03/08 02:22:49;;;;;;;11.33;5.80;;;-4.70;99.90;;;;;;8324205;28;20243;-63
2022/03/08 02:26:51;;;;;;;13.53;6.33;;;-4.80;99.90;;;;;;8331200;28;20198;-64
2022/03/08 02:30:52;;;;;;;13.13;5.77;;;-4.90;99.90;;;;;;8332223;28;20207;-64
2022/03/08 02:34:52;;;;;;;28.90;9.20;;;-4.90;99.90;;;;;;8318397;28;20700;-64
2022/03/08 02:38:53;;;;;;;23.63;9.20;;;-5.00;99.90;;;;;;8329599;28;20213;-63
2022/03/08 02:42:54;;;;;;;14.93;6.90;;;-5.10;99.90;;;;;;8345226;28;20214;-64
2022/03/08 02:46:56;;;;;;;14.57;7.20;;;-5.10;99.90;;;;;;8349731;28;20284;-63
2022/03/08 02:50:57;;;;;;;16.47;6.20;;;-5.20;99.90;;;;;;8347672;28;20199;-64
2022/03/08 02:54:58;;;;;;;12.87;5.63;;;-5.30;99.90;;;;;;8343588;28;20199;-64
2022/03/08 02:58:58;;;;;;;12.93;5.70;;;-5.30;99.90;;;;;;8344199;28;20226;-65
2022/03/08 03:03:00;;;;;;;12.03;5.67;;;-5.40;99.90;;;;;;8351219;28;20230;-64
2022/03/08 03:07:00;;;;;;;12.50;5.97;;;-5.50;99.90;;;;;;8351076;28;20243;-65
2022/03/08 03:11:01;;;;;;;10.57;5.67;;;-5.60;99.90;;;;;;8352100;28;20203;-65
2022/03/08 03:15:04;;;;;;;9.77;5.63;;;-5.60;99.90;;;;;;8329608;28;20267;-64
2022/03/08 03:19:05;;;;;;;11.90;6.57;;;-5.70;99.90;;;;;;8340458;28;20215;-65
2022/03/08 03:23:05;;;;;;;18.10;6.93;;;-5.70;99.90;;;;;;8349790;28;20226;-64
2022/03/08 03:27:06;;;;;;;16.73;6.53;;;-5.80;99.90;;;;;;8352114;28;20210;-64
2022/03/08 03:31:07;;;;;;;12.50;5.63;;;-5.70;99.90;;;;;;8324555;28;20237;-64
2022/03/08 03:35:10;;;;;;;16.50;6.50;;;-5.70;99.90;;;;;;8342624;28;20213;-64
2022/03/08 03:39:11;;;;;;;11.50;6.43;;;-5.80;99.90;;;;;;8328208;28;20213;-64
2022/03/08 03:43:12;;;;;;;13.60;6.63;;;-5.80;99.90;;;;;;8331516;28;20311;-64
2022/03/08 03:47:12;;;;;;;12.70;5.93;;;-5.80;99.90;;;;;;8324826;28;20218;-64
2022/03/08 03:51:14;;;;;;;15.20;6.83;;;-5.80;99.90;;;;;;8322370;28;20206;-63
2022/03/08 03:55:15;;;;;;;11.17;6.00;;;-5.80;99.90;;;;;;8325902;28;20203;-64
2022/03/08 03:59:16;;;;;;;11.23;6.13;;;-5.90;99.90;;;;;;8331775;28;20271;-64
2022/03/08 04:03:18;;;;;;;13.80;6.50;;;-6.00;99.90;;;;;;8350445;28;20224;-64
2022/03/08 04:07:19;;;;;;;13.60;5.43;;;-6.00;99.90;;;;;;8347907;28;20216;-64
2022/03/08 04:11:20;;;;;;;17.10;6.07;;;-6.10;99.90;;;;;;8344704;28;20204;-64
2022/03/08 04:15:21;;;;;;;18.20;7.70;;;-6.00;99.90;;;;;;8348330;28;20210;-64
2022/03/08 04:19:22;;;;;;;17.07;8.13;;;-5.80;99.90;;;;;;8331957;28;20202;-64
2022/03/08 04:23:23;;;;;;;12.77;6.90;;;-5.70;99.90;;;;;;8343025;28;20217;-65
2022/03/08 04:27:23;;;;;;;14.00;6.43;;;-5.80;99.90;;;;;;8324069;28;20213;-64
2022/03/08 04:31:24;;;;;;;18.43;7.73;;;-5.90;99.90;;;;;;8329523;28;20201;-65
2022/03/08 04:35:26;;;;;;;17.20;7.13;;;-5.90;99.90;;;;;;8348541;28;20233;-64
2022/03/08 04:39:27;;;;;;;16.13;6.83;;;-6.00;99.90;;;;;;8329478;28;20214;-64
2022/03/08 04:43:29;;;;;;;19.00;7.80;;;-6.10;99.90;;;;;;8331603;28;20264;-64
2022/03/08 04:47:29;;;;;;;13.83;6.20;;;-6.20;99.90;;;;;;8348073;28;20210;-64
2022/03/08 04:51:30;;;;;;;11.37;6.37;;;-6.30;99.90;;;;;;8328430;28;20227;-64
2022/03/08 04:55:31;;;;;;;18.13;6.93;;;-6.40;99.90;;;;;;8323901;28;20206;-64
2022/03/08 04:59:32;;;;;;;14.83;7.27;;;-6.50;99.90;;;;;;8345788;28;20351;-66
2022/03/08 05:03:33;;;;;;;13.57;6.97;;;-6.50;99.90;;;;;;8324128;28;20233;-64
2022/03/08 05:07:34;;;;;;;15.27;7.40;;;-6.60;99.90;;;;;;8326948;28;20321;-64
2022/03/08 05:11:34;;;;;;;16.77;7.70;;;-6.60;99.90;;;;;;8345517;28;20209;-64
2022/03/08 05:15:36;;;;;;;16.87;6.77;;;-6.60;99.90;;;;;;8327193;28;20209;-65
2022/03/08 05:19:36;;;;;;;18.63;7.30;;;-6.70;99.90;;;;;;8339722;28;20259;-64
2022/03/08 05:23:37;;;;;;;16.20;7.37;;;-6.70;99.90;;;;;;8331840;28;20226;-64
2022/03/08 05:27:38;;;;;;;12.97;6.90;;;-6.60;99.90;;;;;;8330433;28;20284;-64
2022/03/08 05:31:39;;;;;;;13.00;6.50;;;-6.60;99.90;;;;;;8317628;28;20217;-64
2022/03/08 05:35:40;;;;;;;14.70;6.27;;;-6.60;99.90;;;;;;8331165;28;20309;-64
2022/03/08 05:39:41;;;;;;;12.70;6.23;;;-6.50;99.90;;;;;;8329898;28;20622;-64
2022/03/08 05:43:42;;;;;;;14.03;7.87;;;-6.50;99.90;;;;;;8323140;28;20332;-64
2022/03/08 05:47:43;;;;;;;10.93;6.43;;;-6.40;99.90;;;;;;8337967;28;20212;-65
2022/03/08 05:51:44;;;;;;;13.23;6.97;;;-6.40;99.90;;;;;;8329092;28;20198;-64
2022/03/08 05:55:44;;;;;;;12.80;6.70;;;-6.40;99.90;;;;;;8327513;28;20208;-64
2022/03/08 05:59:47;;;;;;;19.83;7.67;;;-6.30;99.90;;;;;;8323483;28;20213;-65
2022/03/08 06:03:48;;;;;;;13.50;6.73;;;-6.20;99.90;;;;;;8343057;28;20237;-64
2022/03/08 06:07:49;;;;;;;20.17;8.40;;;-6.10;99.90;;;;;;8327535;28;20237;-64
2022/03/08 06:11:49;;;;;;;16.10;7.67;;;-6.00;99.90;;;;;;8322207;28;20201;-65
2022/03/08 06:15:50;;;;;;;15.30;7.30;;;-5.90;99.90;;;;;;8334638;28;20255;-64
2022/03/08 06:19:51;;;;;;;17.30;8.30;;;-5.70;99.90;;;;;;8349776;28;20212;-64
2022/03/08 06:23:52;;;;;;;17.07;7.70;;;-5.60;99.90;;;;;;8336152;28;20584;-65
2022/03/08 06:27:53;;;;;;;15.87;8.37;;;-5.40;99.90;;;;;;8329030;28;20209;-65
2022/03/08 06:31:53;;;;;;;19.17;8.70;;;-5.20;99.90;;;;;;8323630;28;20230;-65
2022/03/08 06:35:54;;;;;;;17.70;8.03;;;-5.00;99.90;;;;;;8326842;28;20481;-65
2022/03/08 06:39:55;;;;;;;14.77;7.83;;;-4.80;99.90;;;;;;8333242;28;20212;-65
2022/03/08 06:43:56;;;;;;;15.17;8.30;;;-4.60;99.90;;;;;;8350368;28;20225;-65
2022/03/08 06:47:57;;;;;;;19.57;8.23;;;-4.40;99.90;;;;;;8350563;28;20198;-65
2022/03/08 06:51:57;;;;;;;16.80;8.47;;;-4.20;99.90;;;;;;8346824;28;20271;-66
2022/03/08 06:55:58;;;;;;;20.27;8.87;;;-3.90;99.90;;;;;;8330470;28;20249;-65
2022/03/08 06:59:59;;;;;;;18.90;9.73;;;-3.70;99.90;;;;;;8344800;28;20235;-65
2022/03/08 07:04:00;;;;;;;14.80;8.13;;;-3.40;99.90;;;;;;8327794;28;20410;-65
2022/03/08 07:08:01;;;;;;;18.17;7.80;;;-3.20;99.90;;;;;;8349700;28;20208;-65
2022/03/08 07:12:02;;;;;;;21.57;9.20;;;-2.90;99.90;;;;;;8350323;28;20205;-65
2022/03/08 07:16:03;;;;;;;19.03;8.90;;;-2.60;99.90;;;;;;8330443;28;20213;-65
2022/03/08 07:20:04;;;;;;;22.23;9.30;;;-2.40;99.90;;;;;;8330141;28;20209;-65
2022/03/08 07:24:05;;;;;;;21.70;10.27;;;-2.20;99.90;;;;;;8344673;28;20217;-65
2022/03/08 07:28:07;;;;;;;21.23;10.50;;;-1.90;99.90;;;;;;8345516;28;20237;-65
2022/03/08 07:32:07;;;;;;;19.47;9.83;;;-1.70;99.90;;;;;;8348011;28;20269;-65
2022/03/08 07:36:08;;;;;;;23.63;11.17;;;-1.40;99.90;;;;;;8346845;28;20213;-66
2022/03/08 07:40:10;;;;;;;23.27;11.73;;;-1.20;99.90;;;;;;8328920;28;20206;-66
2022/03/08 07:44:11;;;;;;;23.40;12.00;;;-1.10;99.90;;;;;;8346715;28;20233;-65
2022/03/08 07:48:11;;;;;;;23.13;12.93;;;-1.00;99.90;;;;;;8327849;28;20233;-65
2022/03/08 07:52:13;;;;;;;22.20;12.97;;;-0.90;99.90;;;;;;8328588;28;20215;-65
2022/03/08 07:56:13;;;;;;;27.60;14.07;;;-0.70;99.90;;;;;;8350859;28;20289;-65
2022/03/08 08:00:14;;;;;;;27.10;15.07;;;-0.50;99.90;;;;;;8347707;28;20211;-65
2022/03/08 08:04:15;;;;;;;35.77;17.20;;;-0.40;99.90;;;;;;8348193;28;20265;-65
2022/03/08 08:08:16;;;;;;;35.73;16.90;;;-0.10;99.90;;;;;;8343769;28;20210;-65
2022/03/08 08:12:17;;;;;;;34.53;17.77;;;0.10;99.90;;;;;;8349953;28;20276;-65
2022/03/08 08:16:18;;;;;;;35.03;17.47;;;0.30;99.90;;;;;;8332965;28;20219;-65
2022/03/08 08:20:21;;;;;;;23.33;11.50;;;0.70;99.90;;;;;;8328700;28;20232;-65
2022/03/08 08:24:22;;;;;;;21.13;11.97;;;1.10;99.90;;;;;;8350619;28;20313;-65
2022/03/08 08:28:23;;;;;;;20.50;10.07;;;1.50;99.90;;;;;;8326958;28;20237;-66
2022/03/08 08:32:23;;;;;;;21.43;11.27;;;1.80;99.90;;;;;;8346134;28;20208;-65
2022/03/08 08:36:24;;;;;;;21.13;12.00;;;2.10;99.90;;;;;;8327828;28;20209;-65
2022/03/08 08:40:25;;;;;;;38.13;15.27;;;2.40;1.00;;;;;;8346831;28;20198;-64
2022/03/08 08:44:28;;;;;;;18.63;10.83;;;2.70;99.90;;;;;;8327148;28;20225;-65
2022/03/08 08:48:29;;;;;;;18.97;9.77;;;3.00;1.00;;;;;;8327723;28;20205;-64
2022/03/08 08:52:30;;;;;;;17.33;9.23;;;3.10;99.90;;;;;;8345052;28;20269;-65
2022/03/08 08:56:35;;;;;;;22.50;10.07;;;3.40;99.90;;;;;;8332894;28;20234;-64
2022/03/08 09:00:36;;;;;;;17.57;9.90;;;3.60;99.90;;;;;;8331331;28;20211;-65
2022/03/08 09:04:37;;;;;;;25.83;13.03;;;3.80;99.90;;;;;;8324931;28;20223;-65
2022/03/08 09:08:37;;;;;;;24.93;14.77;;;3.90;1.00;;;;;;8330921;28;20676;-65
2022/03/08 09:12:38;;;;;;;24.37;12.43;;;4.00;87.00;;;;;;8342125;28;20294;-64
2022/03/08 09:16:40;;;;;;;23.20;11.40;;;4.10;99.90;;;;;;8332669;28;20199;-65
2022/03/08 09:20:42;;;;;;;14.20;8.80;;;4.20;99.90;;;;;;8341029;28;20207;-63
2022/03/08 09:24:43;;;;;;;12.07;6.20;;;4.30;1.00;;;;;;8331159;28;20264;-65
2022/03/08 09:28:43;;;;;;;16.10;9.27;;;4.20;99.90;;;;;;8339946;28;20261;-64
2022/03/08 09:32:44;;;;;;;13.10;7.67;;;4.10;1.00;;;;;;8340728;28;20198;-64
2022/03/08 09:36:45;;;;;;;12.70;6.50;;;4.10;1.00;;;;;;8329536;28;20199;-63
2022/03/08 09:40:47;;;;;;;13.90;6.63;;;4.30;48.10;;;;;;8324686;28;20255;-64
2022/03/08 09:44:49;;;;;;;10.00;6.00;;;4.40;99.90;;;;;;8323425;28;20227;-64
2022/03/08 09:48:49;;;;;;;9.57;5.27;;;4.60;1.00;;;;;;8327366;28;20197;-65
2022/03/08 09:52:55;;;;;;;16.37;8.37;;;4.60;1.00;;;;;;8340963;28;20214;-63
2022/03/08 09:56:55;;;;;;;9.70;6.10;;;4.80;1.00;;;;;;8347103;28;20196;-65
2022/03/08 10:00:59;;;;;;;7.80;5.70;;;5.10;99.90;;;;;;8326039;28;20325;-64
2022/03/08 10:05:05;;;;;;;9.73;5.73;;;5.30;99.90;;;;;;8329559;28;20308;-64
2022/03/08 10:09:12;;;;;;;11.77;5.07;;;5.40;99.90;;;;;;8344854;28;20209;-65
2022/03/08 10:13:14;;;;;;;10.30;5.07;;;5.60;99.90;;;;;;8329068;28;20256;-65
2022/03/08 10:17:37;;;;;;;7.50;5.03;;;5.60;99.90;;;;;;8348304;28;20205;-64
2022/03/08 10:21:42;;;;;;;9.07;4.73;;;5.90;1.00;;;;;;8335072;28;20293;-63
2022/03/08 10:25:43;;;;;;;5.63;3.30;;;6.00;1.00;;;;;;8331434;28;20224;-65
2022/03/08 10:29:49;;;;;;;8.37;4.43;;;5.90;1.00;;;;;;8335706;28;20201;-65
2022/03/08 10:33:51;;;;;;;8.70;4.63;;;5.80;1.00;;;;;;8329669;28;20230;-63
2022/03/08 10:37:52;;;;;;;4.63;3.20;;;5.90;1.00;;;;;;8329786;28;20194;-65
2022/03/08 10:41:58;;;;;;;6.43;3.53;;;6.10;99.90;;;;;;8348797;28;20231;-64
2022/03/08 10:45:58;;;;;;;4.30;1.70;;;6.40;99.90;;;;;;8331509;28;20283;-65
2022/03/08 10:50:03;;;;;;;6.90;3.10;;;6.50;1.00;;;;;;8329928;28;20233;-64
2022/03/08 10:54:11;;;;;;;3.53;2.17;;;6.70;1.00;;;;;;8348769;28;20215;-63
2022/03/08 10:58:14;;;;;;;6.17;3.43;;;6.60;1.00;;;;;;8330967;28;20292;-63
2022/03/08 11:02:20;;;;;;;3.03;1.50;;;6.70;1.00;;;;;;8327241;28;20226;-64
2022/03/08 11:06:22;;;;;;;2.97;1.70;;;6.90;99.90;;;;;;8334037;28;20205;-63
2022/03/08 11:10:24;;;;;;;2.83;1.10;;;7.10;99.90;;;;;;8345848;28;20217;-64
2022/03/08 11:14:25;;;;;;;2.63;1.10;;;7.20;99.90;;;;;;8329033;28;20221;-63
2022/03/08 11:18:28;;;;;;;1.80;1.10;;;7.10;99.90;;;;;;8342130;28;20296;-64
2022/03/08 11:22:29;;;;;;;1.90;1.43;;;6.90;99.90;;;;;;8350843;28;20435;-63
2022/03/08 11:26:30;;;;;;;1.83;1.20;;;7.00;99.90;;;;;;8334577;28;20252;-64
2022/03/08 11:30:34;;;;;;;4.37;1.80;;;7.20;99.90;;;;;;8343780;28;20216;-63
2022/03/08 11:34:45;;;;;;;3.13;1.30;;;7.20;99.90;;;;;;8328085;28;20260;-64
2022/03/08 11:39:18;;;;;;;2.20;1.43;;;7.10;99.90;;;;;;8350107;28;20198;-64
2022/03/08 11:43:20;;;;;;;3.30;1.77;;;7.00;99.90;;;;;;8325619;28;20359;-62
2022/03/08 11:47:21;;;;;;;1.93;1.30;;;7.00;99.90;;;;;;8322374;28;20264;-64
2022/03/08 11:51:23;;;;;;;3.23;1.97;;;7.20;99.90;;;;;;8351942;28;20237;-65
2022/03/08 11:55:26;;;;;;;5.37;2.20;;;7.50;99.90;;;;;;8350152;28;20209;-65
2022/03/08 11:59:27;;;;;;;4.00;2.00;;;7.70;99.90;;;;;;8350918;28;20224;-64
2022/03/08 12:03:33;;;;;;;2.17;1.10;;;7.80;99.90;;;;;;8343795;28;20233;-64
2022/03/08 12:07:34;;;;;;;2.87;2.10;;;7.70;99.90;;;;;;8332367;28;20217;-64
2022/03/08 12:11:59;;;;;;;4.53;2.50;;;7.80;99.90;;;;;;8325651;28;20213;-63
2022/03/08 12:16:09;;;;;;;3.83;1.87;;;8.00;99.90;;;;;;8319828;28;20219;-63
2022/03/08 12:20:14;;;;;;;1.97;1.30;;;8.10;99.90;;;;;;8344341;28;20913;-64
2022/03/08 12:24:18;;;;;;;1.53;0.90;;;8.20;99.90;;;;;;8341932;28;20299;-63
2022/03/08 12:28:57;;;;;;;6.63;2.70;;;8.30;99.90;;;;;;8330731;28;20219;-63
2022/03/08 12:32:58;;;;;;;4.73;2.10;;;8.40;99.90;;;;;;8346932;28;20292;-64
2022/03/08 12:37:14;;;;;;;3.87;1.87;;;8.50;99.90;;;;;;8347345;28;20195;-64
2022/03/08 12:41:15;;;;;;;2.63;1.30;;;8.60;99.90;;;;;;8330813;28;20213;-66
2022/03/08 12:45:23;;;;;;;1.33;0.80;;;8.50;99.90;;;;;;8341111;28;20218;-64
2022/03/08 12:49:24;;;;;;;4.20;1.77;;;8.20;99.90;;;;;;8324580;28;20264;-63
2022/03/08 12:53:30;;;;;;;2.00;1.20;;;8.40;99.90;;;;;;8347033;28;20215;-64
2022/03/08 12:57:43;;;;;;;4.63;2.57;;;8.50;99.90;;;;;;8343611;28;20202;-63
2022/03/08 13:01:44;;;;;;;5.53;3.10;;;8.70;99.90;;;;;;8330003;28;20209;-65
2022/03/08 13:05:50;;;;;;;2.30;1.40;;;8.70;99.90;;;;;;8328371;28;20228;-65
2022/03/08 13:10:00;;;;;;;4.80;1.70;;;8.80;99.90;;;;;;8320514;28;20225;-65
2022/03/08 13:14:11;;;;;;;4.10;1.47;;;8.80;99.90;;;;;;8327610;28;20201;-65
2022/03/08 13:18:12;;;;;;;1.00;0.70;;;8.70;99.90;;;;;;8344076;28;20202;-64
2022/03/08 13:22:13;;;;;;;2.40;1.40;;;8.60;99.90;;;;;;8327331;28;20214;-66
2022/03/08 13:31:07;;;;;;;4.70;2.60;;;8.60;99.90;;;;;;8187584;28;20212;-64
2022/03/08 13:35:10;;;;;;;1.80;1.00;;;8.70;99.90;;;;;;8264361;28;20240;-64
2022/03/08 13:39:11;;;;;;;4.03;2.40;;;8.60;99.90;;;;;;8330868;28;20205;-66
2022/03/08 13:43:14;;;;;;;4.93;2.13;;;8.30;99.90;;;;;;8325895;28;20306;-65
2022/03/08 13:47:15;;;;;;;4.23;3.03;;;8.40;99.90;;;;;;8341984;28;20297;-65
2022/03/08 13:51:16;;;;;;;3.23;2.13;;;8.50;99.90;;;;;;8329237;28;20235;-65
2022/03/08 13:55:18;;;;;;;6.90;2.90;;;8.50;99.90;;;;;;8322364;28;20244;-65
2022/03/08 13:59:28;;;;;;;7.00;4.30;;;8.60;99.90;;;;;;8347014;28;20248;-64
2022/03/08 14:03:42;;;;;;;2.07;1.40;;;8.70;99.90;;;;;;8344736;28;20225;-66
2022/03/08 14:08:00;;;;;;;2.30;1.30;;;8.60;99.90;;;;;;8342734;28;20615;-66
2022/03/08 14:12:04;;;;;;;4.07;2.03;;;8.60;99.90;;;;;;8337234;28;20284;-64
2022/03/08 14:16:06;;;;;;;4.33;2.00;;;8.60;99.90;;;;;;8330297;28;20206;-65
2022/03/08 14:20:19;;;;;;;3.20;1.90;;;8.60;99.90;;;;;;8329872;28;20228;-63
2022/03/08 14:24:21;;;;;;;3.03;1.50;;;8.70;99.90;;;;;;8349902;28;20221;-65
2022/03/08 14:28:46;;;;;;;3.77;2.13;;;8.70;99.90;;;;;;8347565;28;20197;-64
2022/03/08 14:32:47;;;;;;;7.13;3.77;;;8.80;99.90;;;;;;8326200;28;20309;-65
2022/03/08 14:36:57;;;;;;;4.93;3.17;;;8.80;99.90;;;;;;8354044;28;20472;-65
2022/03/08 14:40:58;;;;;;;4.77;2.23;;;8.60;99.90;;;;;;8333942;28;20202;-66
2022/03/08 14:44:59;;;;;;;4.23;2.80;;;8.40;99.90;;;;;;8353003;28;20253;-65
2022/03/08 14:49:01;;;;;;;10.53;6.47;;;8.30;99.90;;;;;;8353222;28;20259;-64
2022/03/08 14:53:02;;;;;;;12.80;6.70;;;8.40;99.90;;;;;;8337041;28;20748;-64
2022/03/08 14:57:03;;;;;;;7.27;4.80;;;8.30;99.90;;;;;;8354117;28;20614;-65
2022/03/08 15:01:05;;;;;;;5.23;3.20;;;8.40;99.90;;;;;;8334161;28;20472;-65
2022/03/08 15:05:06;;;;;;;4.07;2.60;;;8.40;99.90;;;;;;8332878;28;20230;-65
2022/03/08 15:09:09;;;;;;;5.13;2.77;;;8.30;99.90;;;;;;8348988;28;20198;-64
2022/03/08 15:13:09;;;;;;;8.23;4.70;;;8.20;99.90;;;;;;8349880;28;20300;-66
2022/03/08 15:17:12;;;;;;;9.83;5.33;;;8.00;1.00;;;;;;8351800;28;20205;-64
2022/03/08 15:21:13;;;;;;;35.93;18.43;;;8.00;1.00;;;;;;8350837;28;20213;-66
2022/03/08 15:25:14;;;;;;;23.53;10.47;;;8.00;1.00;;;;;;8352567;28;20230;-63
2022/03/08 15:29:19;;;;;;;25.20;12.67;;;7.90;1.00;;;;;;8337616;28;20206;-66
2022/03/08 15:33:19;;;;;;;28.90;13.17;;;7.90;1.00;;;;;;8353513;28;20198;-65
2022/03/08 15:37:21;;;;;;;19.53;7.60;;;7.90;1.00;;;;;;8353142;28;20201;-63
2022/03/08 15:41:23;;;;;;;32.27;14.07;;;7.80;1.00;;;;;;8352619;28;20209;-64
2022/03/08 15:45:24;;;;;;;20.30;9.90;;;7.80;1.00;;;;;;8349751;28;20304;-65
2022/03/08 15:49:24;;;;;;;6.73;3.50;;;7.70;12.10;;;;;;8351313;28;20252;-63
2022/03/08 15:53:26;;;;;;;6.60;3.97;;;7.60;21.50;;;;;;8334553;28;20532;-64
2022/03/08 15:57:27;;;;;;;7.80;4.57;;;7.50;47.40;;;;;;8352255;28;20190;-63
2022/03/08 16:01:29;;;;;;;10.83;6.00;;;7.40;99.90;;;;;;8348563;28;20221;-64
2022/03/08 16:05:31;;;;;;;10.10;5.30;;;7.40;99.90;;;;;;8351327;28;20329;-63
2022/03/08 16:09:33;;;;;;;13.60;7.53;;;7.30;99.90;;;;;;8350330;28;20197;-64
2022/03/08 16:13:34;;;;;;;37.13;15.37;;;7.10;99.90;;;;;;8345294;28;20210;-63
2022/03/08 16:17:36;;;;;;;29.67;14.03;;;7.00;99.90;;;;;;8330144;28;20289;-63
2022/03/08 16:21:37;;;;;;;29.60;16.70;;;6.90;99.90;;;;;;8343738;28;20209;-64
2022/03/08 16:25:39;;;;;;;12.43;6.13;;;6.80;99.90;;;;;;8333129;28;20233;-63
2022/03/08 16:29:40;;;;;;;9.03;5.40;;;6.70;99.90;;;;;;8346356;28;20198;-64
2022/03/08 16:33:40;;;;;;;19.30;11.20;;;6.50;99.90;;;;;;8348653;28;20228;-66
2022/03/08 16:37:41;;;;;;;40.77;19.50;;;6.40;1.00;;;;;;8347460;28;20240;-65
2022/03/08 16:41:42;;;;;;;41.70;21.17;;;6.10;1.00;;;;;;8326074;28;20233;-64
2022/03/08 16:45:43;;;;;;;38.37;17.50;;;5.90;1.00;;;;;;8344719;28;20233;-66
2022/03/08 16:49:45;;;;;;;26.03;11.67;;;5.50;24.50;;;;;;8329143;28;20198;-64
2022/03/08 16:53:46;;;;;;;17.83;8.00;;;5.10;99.90;;;;;;8333314;28;20201;-64
2022/03/08 16:57:47;;;;;;;10.40;5.20;;;4.70;1.00;;;;;;8332374;28;20247;-65
2022/03/08 17:01:48;;;;;;;9.37;4.17;;;4.30;89.10;;;;;;8328506;28;20228;-66
2022/03/08 17:05:50;;;;;;;5.00;2.80;;;3.90;99.90;;;;;;8349887;28;20217;-64
2022/03/08 17:09:51;;;;;;;4.03;2.20;;;3.60;22.70;;;;;;8326261;28;20214;-64
2022/03/08 17:13:52;;;;;;;3.97;1.80;;;3.30;99.90;;;;;;8330273;28;20294;-63
2022/03/08 17:17:52;;;;;;;3.07;1.80;;;2.90;14.30;;;;;;8328819;28;20208;-63
2022/03/08 17:21:53;;;;;;;3.30;1.63;;;2.70;99.90;;;;;;8340684;28;20212;-64
2022/03/08 17:25:57;;;;;;;2.20;1.03;;;2.50;1.00;;;;;;8346505;28;20217;-63
2022/03/08 17:29:58;;;;;;;2.87;1.30;;;2.30;99.90;;;;;;8330938;28;20197;-65
2022/03/08 17:34:01;;;;;;;2.00;1.10;;;2.10;24.40;;;;;;8324954;28;20248;-63
2022/03/08 17:38:03;;;;;;;2.30;1.20;;;1.90;99.90;;;;;;8327086;28;20206;-63
2022/03/08 17:42:04;;;;;;;2.80;1.43;;;1.70;49.80;;;;;;8323896;28;20230;-65
2022/03/08 17:46:04;;;;;;;4.23;1.50;;;1.60;99.90;;;;;;8327221;28;20567;-63
2022/03/08 17:50:06;;;;;;;2.87;1.30;;;1.40;1.00;;;;;;8322090;28;20237;-63
2022/03/08 17:54:06;;;;;;;2.47;1.60;;;1.20;99.90;;;;;;8326232;28;20206;-63
2022/03/08 17:58:07;;;;;;;2.37;1.33;;;1.10;93.50;;;;;;8348184;28;20241;-63
2022/03/08 18:02:09;;;;;;;3.90;1.50;;;0.90;1.00;;;;;;8337443;28;20211;-63
2022/03/08 18:06:09;;;;;;;1.83;1.20;;;0.80;99.90;;;;;;8324783;28;20244;-64
2022/03/08 18:10:10;;;;;;;2.90;1.27;;;0.70;1.00;;;;;;8323193;28;20231;-64
2022/03/08 18:14:12;;;;;;;3.07;1.30;;;0.70;99.90;;;;;;8346528;28;20213;-64
2022/03/08 18:18:13;;;;;;;2.90;1.50;;;0.50;99.90;;;;;;8322970;28;20211;-66
2022/03/08 18:22:14;;;;;;;1.03;0.70;;;0.40;1.00;;;;;;8324756;28;20649;-63
2022/03/08 18:26:15;;;;;;;1.97;1.23;;;0.30;1.00;;;;;;8323676;28;20277;-63
2022/03/08 18:30:16;;;;;;;3.10;1.50;;;0.20;20.60;;;;;;8322458;28;20293;-64
2022/03/08 18:34:21;;;;;;;6.93;3.47;;;0.00;99.90;;;;;;8326345;28;20250;-62
2022/03/08 18:38:21;;;;;;;5.07;2.53;;;-0.10;99.90;;;;;;8334552;28;20212;-63
2022/03/08 18:42:22;;;;;;;5.40;1.70;;;-0.20;99.90;;;;;;8346221;28;20220;-64
2022/03/08 18:46:24;;;;;;;3.70;1.50;;;-0.30;99.90;;;;;;8324694;28;20275;-62
2022/03/08 18:50:26;;;;;;;2.17;1.20;;;-0.40;1.00;;;;;;8327260;28;20212;-62
2022/03/08 18:54:27;;;;;;;2.60;1.20;;;-0.50;1.00;;;;;;8330259;28;20208;-62
2022/03/08 18:58:27;;;;;;;3.07;1.20;;;-0.60;1.00;;;;;;8329184;28;20214;-63
2022/03/08 19:02:28;;;;;;;1.53;1.03;;;-0.70;64.10;;;;;;8329030;28;20213;-62
2022/03/08 19:06:30;;;;;;;3.03;1.23;;;-0.70;99.90;;;;;;8329571;28;20225;-64
2022/03/08 19:10:32;;;;;;;1.30;0.73;;;-0.80;99.90;;;;;;8336749;28;20288;-62
2022/03/08 19:14:33;;;;;;;3.00;1.20;;;-0.90;99.90;;;;;;8339180;28;20220;-64
2022/03/08 19:18:38;;;;;;;2.07;1.10;;;-1.00;99.90;;;;;;8324977;28;20213;-62
2022/03/08 19:22:39;;;;;;;1.57;0.93;;;-1.10;99.90;;;;;;8331694;28;20202;-63
2022/03/08 19:26:40;;;;;;;1.87;1.20;;;-1.20;99.90;;;;;;8327732;28;20252;-63
2022/03/08 19:30:42;;;;;;;3.27;1.47;;;-1.20;99.90;;;;;;8326722;28;20212;-63
2022/03/08 19:34:43;;;;;;;11.53;3.10;;;-1.30;99.90;;;;;;8349876;28;20209;-62
2022/03/08 19:38:50;;;;;;;11.97;2.93;;;-1.30;99.90;;;;;;8331636;28;20201;-65
2022/03/08 19:42:51;;;;;;;5.20;2.37;;;-1.40;1.00;;;;;;8323770;28;20225;-62
2022/03/08 19:46:52;;;;;;;4.33;2.10;;;-1.40;1.00;;;;;;8331332;28;20288;-63
2022/03/08 19:50:53;;;;;;;6.17;2.10;;;-1.50;1.00;;;;;;8329273;28;20205;-63
2022/03/08 19:54:54;;;;;;;3.50;1.67;;;-1.60;1.00;;;;;;8331649;28;20201;-63
2022/03/08 19:58:56;;;;;;;2.43;1.20;;;-1.60;1.00;;;;;;8343412;28;20263;-64
2022/03/08 20:02:57;;;;;;;2.20;1.43;;;-1.70;1.00;;;;;;8325288;28;20228;-63
2022/03/08 20:06:58;;;;;;;4.33;1.30;;;-1.70;1.00;;;;;;8329680;28;20201;-63
2022/03/08 20:10:59;;;;;;;1.80;1.30;;;-1.80;1.00;;;;;;8327893;28;20221;-63
2022/03/08 20:15:00;;;;;;;3.20;1.57;;;-1.90;1.00;;;;;;8333837;28;20206;-64
2022/03/08 20:19:02;;;;;;;5.67;1.50;;;-2.00;1.00;;;;;;8333324;28;20205;-62
2022/03/08 20:23:03;;;;;;;2.97;1.30;;;-2.00;1.00;;;;;;8333352;28;20213;-65
2022/03/08 20:27:04;;;;;;;1.53;0.93;;;-2.10;1.00;;;;;;8352368;28;20225;-64
2022/03/08 20:31:05;;;;;;;1.87;1.50;;;-2.10;99.90;;;;;;8332363;28;20221;-62
2022/03/08 20:35:06;;;;;;;2.97;1.53;;;-2.20;99.90;;;;;;8332906;28;20197;-62
2022/03/08 20:39:07;;;;;;;3.27;1.33;;;-2.20;99.90;;;;;;8332705;28;20201;-62
2022/03/08 20:43:08;;;;;;;3.03;1.60;;;-2.30;99.90;;;;;;8333379;28;20221;-63
2022/03/08 20:47:09;;;;;;;2.90;1.40;;;-2.30;99.90;;;;;;8332516;28;20236;-63
2022/03/08 20:51:10;;;;;;;4.00;2.33;;;-2.30;99.90;;;;;;8350801;28;20225;-64
2022/03/08 20:55:11;;;;;;;4.00;1.93;;;-2.40;99.90;;;;;;8333895;28;20237;-63
2022/03/08 20:59:12;;;;;;;3.13;1.87;;;-2.40;99.90;;;;;;8349458;28;20225;-63
2022/03/08 21:03:13;;;;;;;10.03;4.33;;;-2.40;99.90;;;;;;8329167;28;20225;-64